Time;durP1;ratioP1;P1;durP2;ratioP2;P2;SDS_P1;SDS_P2;PMS_P1;PMS_P2;Temp;Humidity;BMP_temperature;BMP_pressure;BME280_temperature;BME280_humidity;BME280_pressure;Samples;Min_cycle;Max_cycle;Signal;HPM_P1;HPM_P2
2023/04/08 00:01:40;;;;;;;3.83;2.20;;;11.70;78.20;;;;;;5024504;28;20034;-58
2023/04/08 00:04:08;;;;;;;8.70;2.45;;;11.70;78.20;;;;;;5040394;28;20052;-58
2023/04/08 00:06:34;;;;;;;5.25;1.80;;;11.70;78.30;;;;;;5056900;28;20029;-58
2023/04/08 00:08:59;;;;;;;2.92;1.70;;;11.70;78.30;;;;;;5025517;28;20034;-58
2023/04/08 00:11:25;;;;;;;5.10;2.10;;;11.70;78.20;;;;;;5025255;28;20026;-58
2023/04/08 00:13:51;;;;;;;6.70;2.42;;;11.70;78.30;;;;;;5025337;28;20034;-58
2023/04/08 00:16:16;;;;;;;3.20;2.20;;;11.70;78.30;;;;;;5025107;28;20136;-58
2023/04/08 00:18:42;;;;;;;3.63;2.03;;;11.70;78.30;;;;;;5025357;28;20026;-58
2023/04/08 00:21:08;;;;;;;4.38;2.53;;;11.70;78.30;;;;;;5025208;28;20038;-58
2023/04/08 00:23:33;;;;;;;3.35;2.10;;;11.70;78.30;;;;;;5056782;28;20029;-58
2023/04/08 00:25:59;;;;;;;3.28;1.75;;;11.60;78.30;;;;;;5040167;28;20033;-58
2023/04/08 00:28:24;;;;;;;4.63;2.10;;;11.60;78.40;;;;;;5056729;28;20034;-58
2023/04/08 00:30:51;;;;;;;5.82;1.92;;;11.60;78.50;;;;;;5039994;28;20021;-58
2023/04/08 00:33:17;;;;;;;4.85;2.17;;;11.60;78.40;;;;;;5039963;28;20049;-58
2023/04/08 00:35:43;;;;;;;4.40;2.17;;;11.60;78.50;;;;;;5025063;28;20026;-58
2023/04/08 00:38:08;;;;;;;3.35;1.63;;;11.60;78.60;;;;;;5040030;28;20034;-58
2023/04/08 00:40:34;;;;;;;3.03;1.90;;;11.50;78.50;;;;;;5007187;28;20036;-58
2023/04/08 00:43:00;;;;;;;3.63;2.22;;;11.50;78.60;;;;;;5023327;28;20030;-58
2023/04/08 00:45:25;;;;;;;4.53;1.88;;;11.50;78.70;;;;;;5040225;28;20312;-58
2023/04/08 00:47:51;;;;;;;4.95;2.28;;;11.50;79.40;;;;;;5024821;28;20038;-58
2023/04/08 00:50:17;;;;;;;2.63;1.80;;;11.40;78.70;;;;;;5023027;28;20032;-58
2023/04/08 00:52:42;;;;;;;4.53;1.70;;;11.40;79.40;;;;;;5040182;28;20041;-58
2023/04/08 00:55:08;;;;;;;4.80;2.20;;;11.40;78.80;;;;;;5025255;28;20033;-58
2023/04/08 00:57:34;;;;;;;3.20;1.95;;;11.40;78.80;;;;;;5025096;28;20041;-58
2023/04/08 00:59:59;;;;;;;2.70;2.08;;;11.40;78.90;;;;;;5024463;28;20049;-58
2023/04/08 01:02:35;;;;;;;3.40;2.20;;;11.40;78.90;;;;;;5040148;28;20467;-58
2023/04/08 01:05:12;;;;;;;2.63;1.67;;;11.40;79.00;;;;;;5040342;28;20042;-57
2023/04/08 01:07:43;;;;;;;2.90;1.80;;;11.40;78.90;;;;;;5023446;28;20045;-58
2023/04/08 01:10:14;;;;;;;2.65;1.80;;;11.40;78.90;;;;;;5024551;28;20127;-58
2023/04/08 01:12:42;;;;;;;4.18;1.80;;;11.40;78.90;;;;;;5041542;28;20029;-58
2023/04/08 01:15:10;;;;;;;3.97;2.00;;;11.30;78.80;;;;;;5026840;28;20034;-57
2023/04/08 01:17:35;;;;;;;3.47;1.83;;;11.30;78.90;;;;;;5026653;28;20057;-58
2023/04/08 01:20:03;;;;;;;2.83;1.92;;;11.30;78.90;;;;;;5045409;28;20030;-58
2023/04/08 01:22:42;;;;;;;3.55;1.58;;;11.30;78.90;;;;;;5027954;28;20038;-58
2023/04/08 01:25:13;;;;;;;1.65;1.20;;;11.30;78.80;;;;;;5059881;28;20077;-58
2023/04/08 01:27:39;;;;;;;2.92;1.83;;;11.30;78.90;;;;;;5043217;28;20034;-58
2023/04/08 01:30:05;;;;;;;2.45;1.60;;;11.30;79.60;;;;;;5027120;28;20084;-58
2023/04/08 01:32:32;;;;;;;5.95;1.88;;;11.30;78.90;;;;;;5043223;28;20105;-58
2023/04/08 01:34:57;;;;;;;4.28;1.92;;;11.30;78.90;;;;;;5026643;28;20030;-58
2023/04/08 01:37:23;;;;;;;3.38;2.65;;;11.20;79.00;;;;;;5026613;28;20378;-58
2023/04/08 01:39:48;;;;;;;3.45;2.65;;;11.20;79.00;;;;;;5026551;28;20164;-58
2023/04/08 01:42:14;;;;;;;4.25;2.80;;;11.20;79.00;;;;;;5009743;28;20021;-58
2023/04/08 01:44:39;;;;;;;4.38;2.50;;;11.30;79.10;;;;;;5026551;28;20109;-58
2023/04/08 01:47:05;;;;;;;3.25;2.50;;;11.30;79.10;;;;;;5042813;28;20022;-58
2023/04/08 01:49:30;;;;;;;3.80;2.92;;;11.20;79.10;;;;;;5026190;28;20030;-58
2023/04/08 01:51:56;;;;;;;4.38;2.83;;;11.20;79.10;;;;;;5009588;28;20044;-58
2023/04/08 01:54:22;;;;;;;4.85;3.28;;;11.20;79.10;;;;;;5026250;28;20034;-57
2023/04/08 01:56:47;;;;;;;3.17;2.70;;;11.20;79.70;;;;;;5026120;28;20094;-58
2023/04/08 01:59:13;;;;;;;5.65;2.95;;;11.20;79.10;;;;;;5009557;28;20121;-58
2023/04/08 02:01:39;;;;;;;4.40;2.78;;;11.20;79.20;;;;;;5042345;28;20091;-58
2023/04/08 02:04:04;;;;;;;4.63;2.65;;;11.20;79.10;;;;;;5042633;28;20113;-58
2023/04/08 02:06:30;;;;;;;3.53;2.53;;;11.20;79.20;;;;;;5025874;28;20196;-59
2023/04/08 02:08:56;;;;;;;5.82;2.90;;;11.20;79.20;;;;;;5042349;28;20548;-58
2023/04/08 02:11:22;;;;;;;4.53;2.63;;;11.20;79.30;;;;;;5042244;28;20030;-58
2023/04/08 02:13:47;;;;;;;4.30;2.60;;;11.20;79.30;;;;;;5042328;28;20075;-58
2023/04/08 02:16:47;;;;;;;4.07;2.63;;;11.20;79.30;;;;;;5025895;28;20018;-58
2023/04/08 02:19:24;;;;;;;2.97;2.53;;;11.20;79.40;;;;;;5038133;28;20045;-58
2023/04/08 02:21:54;;;;;;;7.07;2.70;;;11.20;79.30;;;;;;5025548;28;20045;-58
2023/04/08 02:24:19;;;;;;;2.92;2.40;;;11.20;79.40;;;;;;5058074;28;20038;-58
2023/04/08 02:26:45;;;;;;;3.80;2.50;;;11.10;79.40;;;;;;5042016;28;20052;-58
2023/04/08 02:29:12;;;;;;;4.63;2.30;;;11.10;79.40;;;;;;5041958;28;20041;-58
2023/04/08 02:31:38;;;;;;;6.63;2.72;;;11.10;79.40;;;;;;5041953;28;20117;-58
2023/04/08 02:34:04;;;;;;;4.38;2.83;;;11.20;79.40;;;;;;5025444;28;20080;-58
2023/04/08 02:36:31;;;;;;;3.47;2.53;;;11.20;79.40;;;;;;5009046;28;20018;-57
2023/04/08 02:38:56;;;;;;;3.25;2.30;;;11.10;79.50;;;;;;5025181;28;20064;-58
2023/04/08 02:41:22;;;;;;;2.75;2.17;;;11.10;79.50;;;;;;5025719;28;20029;-59
2023/04/08 02:43:47;;;;;;;3.65;2.38;;;11.10;79.50;;;;;;5041981;28;20042;-58
2023/04/08 02:46:13;;;;;;;3.00;2.15;;;11.10;79.50;;;;;;5026670;28;20508;-58
2023/04/08 02:48:38;;;;;;;12.10;2.78;;;11.10;79.50;;;;;;5041552;28;20092;-58
2023/04/08 02:51:04;;;;;;;3.05;2.08;;;11.10;79.60;;;;;;5041404;28;20084;-58
2023/04/08 02:53:30;;;;;;;2.97;2.20;;;11.10;79.60;;;;;;5026632;28;20097;-58
2023/04/08 02:55:55;;;;;;;4.05;2.40;;;11.10;79.70;;;;;;5041567;28;20021;-58
2023/04/08 02:58:21;;;;;;;6.63;2.45;;;11.10;79.80;;;;;;5024829;28;20041;-58
2023/04/08 03:00:46;;;;;;;3.15;2.20;;;11.00;79.70;;;;;;5041535;28;20026;-58
2023/04/08 03:03:12;;;;;;;5.40;2.13;;;11.10;79.80;;;;;;5041166;28;20102;-58
2023/04/08 03:05:37;;;;;;;2.70;2.10;;;11.10;79.80;;;;;;5026318;28;20684;-58
2023/04/08 03:08:03;;;;;;;3.45;2.17;;;11.00;79.80;;;;;;5024814;28;20059;-58
2023/04/08 03:10:29;;;;;;;3.47;2.08;;;11.00;79.80;;;;;;5041276;28;20030;-58
2023/04/08 03:12:54;;;;;;;5.57;2.53;;;11.00;79.90;;;;;;5041199;28;20052;-58
2023/04/08 03:15:20;;;;;;;4.30;2.30;;;11.00;79.90;;;;;;5026146;28;20026;-58
2023/04/08 03:17:46;;;;;;;2.30;1.83;;;11.00;79.90;;;;;;5025931;28;20113;-58
2023/04/08 03:20:11;;;;;;;8.15;2.17;;;11.00;80.00;;;;;;5024460;28;20041;-58
2023/04/08 03:22:37;;;;;;;4.28;2.15;;;11.00;80.00;;;;;;5008068;28;20359;-58
2023/04/08 03:25:03;;;;;;;4.18;1.90;;;11.10;80.20;;;;;;5024477;28;20106;-58
2023/04/08 03:27:28;;;;;;;2.67;2.03;;;11.00;80.10;;;;;;5040857;28;20061;-56
2023/04/08 03:29:54;;;;;;;3.88;2.17;;;11.00;80.10;;;;;;5025875;28;20030;-57
2023/04/08 03:32:19;;;;;;;3.97;2.00;;;11.00;80.20;;;;;;5026365;28;20022;-56
2023/04/08 03:34:45;;;;;;;2.88;1.80;;;11.00;80.30;;;;;;5040307;28;20022;-57
2023/04/08 03:37:11;;;;;;;3.67;2.17;;;11.00;80.40;;;;;;5025157;28;20025;-57
2023/04/08 03:39:37;;;;;;;3.92;2.38;;;11.00;80.40;;;;;;5040739;28;20095;-57
2023/04/08 03:42:03;;;;;;;3.65;2.28;;;11.00;81.10;;;;;;5040697;28;20109;-57
2023/04/08 03:44:28;;;;;;;4.00;2.20;;;11.00;80.50;;;;;;5040732;28;20037;-57
2023/04/08 03:46:54;;;;;;;3.25;2.20;;;11.00;81.20;;;;;;5057336;28;20029;-58
2023/04/08 03:49:19;;;;;;;3.50;2.45;;;11.00;80.50;;;;;;5040345;28;20052;-58
2023/04/08 03:51:45;;;;;;;5.70;2.83;;;11.00;80.50;;;;;;5023639;28;20025;-58
2023/04/08 03:54:10;;;;;;;6.07;3.00;;;11.00;81.10;;;;;;5040353;28;20034;-58
2023/04/08 03:56:36;;;;;;;8.55;3.15;;;11.00;80.90;;;;;;5040303;28;20109;-58
2023/04/08 03:59:02;;;;;;;11.30;3.63;;;11.00;80.50;;;;;;5025271;28;20026;-58
2023/04/08 04:01:28;;;;;;;9.90;3.50;;;11.00;80.60;;;;;;5040405;28;20200;-58
2023/04/08 04:03:54;;;;;;;8.90;3.42;;;11.00;80.60;;;;;;5025428;28;20030;-58
2023/04/08 04:06:19;;;;;;;24.27;6.07;;;11.00;80.70;;;;;;5023986;28;20033;-58
2023/04/08 04:08:45;;;;;;;77.43;10.60;;;11.00;80.90;;;;;;5025164;28;20089;-58
2023/04/08 04:11:11;;;;;;;62.42;9.80;;;11.00;80.90;;;;;;5056938;28;20026;-58
2023/04/08 04:13:36;;;;;;;51.72;8.45;;;11.00;80.90;;;;;;5040200;28;20034;-58
2023/04/08 04:16:02;;;;;;;37.28;8.52;;;11.00;81.00;;;;;;5040271;28;20014;-58
2023/04/08 04:18:27;;;;;;;35.28;8.57;;;10.90;81.00;;;;;;5040105;28;20028;-58
2023/04/08 04:20:53;;;;;;;40.83;8.48;;;11.00;81.00;;;;;;5025199;28;20045;-58
2023/04/08 04:23:19;;;;;;;39.60;7.78;;;11.00;80.90;;;;;;5040062;28;20156;-58
2023/04/08 04:25:44;;;;;;;33.25;7.82;;;11.00;80.90;;;;;;5025088;28;20385;-58
2023/04/08 04:28:10;;;;;;;27.83;7.18;;;11.00;80.90;;;;;;5023611;28;20042;-58
2023/04/08 04:30:37;;;;;;;38.28;7.20;;;11.00;81.00;;;;;;5025030;28;20026;-58
2023/04/08 04:33:03;;;;;;;24.67;6.50;;;11.00;81.20;;;;;;5040009;28;20490;-58
2023/04/08 04:35:29;;;;;;;22.55;5.88;;;11.00;81.20;;;;;;5039911;28;20030;-57
2023/04/08 04:37:54;;;;;;;39.03;7.15;;;11.00;81.30;;;;;;5023459;28;20565;-58
2023/04/08 04:40:20;;;;;;;32.95;6.95;;;10.90;81.40;;;;;;5024869;28;20022;-58
2023/04/08 04:42:45;;;;;;;24.52;6.03;;;10.90;81.50;;;;;;5056456;28;20390;-58
2023/04/08 04:45:11;;;;;;;15.82;6.38;;;10.90;81.50;;;;;;5023611;28;20450;-58
2023/04/08 04:47:37;;;;;;;22.90;6.03;;;10.90;81.60;;;;;;5042051;28;20030;-58
2023/04/08 04:50:02;;;;;;;23.88;5.75;;;10.90;82.30;;;;;;5044126;28;20426;-57
2023/04/08 04:52:28;;;;;;;28.58;6.18;;;10.90;81.70;;;;;;5031903;28;20109;-58
2023/04/08 04:54:53;;;;;;;34.78;6.25;;;10.90;81.80;;;;;;5029471;28;20022;-59
2023/04/08 04:57:19;;;;;;;17.13;5.20;;;10.90;81.80;;;;;;5043802;28;20026;-58
2023/04/08 04:59:45;;;;;;;31.52;5.30;;;10.90;81.80;;;;;;5028644;28;20077;-58
2023/04/08 05:02:10;;;;;;;29.88;5.85;;;10.90;81.80;;;;;;5043687;28;20025;-58
2023/04/08 05:04:36;;;;;;;27.55;5.00;;;10.90;81.90;;;;;;5028612;28;20071;-58
2023/04/08 05:07:01;;;;;;;20.33;4.38;;;10.90;82.00;;;;;;5043404;28;20077;-58
2023/04/08 05:09:28;;;;;;;16.05;4.85;;;10.90;82.00;;;;;;5028450;28;20044;-58
2023/04/08 05:11:53;;;;;;;24.85;5.30;;;10.90;82.10;;;;;;5043260;28;20045;-58
2023/04/08 05:14:19;;;;;;;9.50;3.88;;;10.90;82.10;;;;;;5043274;28;20026;-58
2023/04/08 05:16:45;;;;;;;19.73;4.47;;;10.90;82.40;;;;;;5026875;28;20097;-58
2023/04/08 05:19:10;;;;;;;13.57;4.57;;;10.90;82.80;;;;;;5028162;28;20037;-58
2023/04/08 05:21:36;;;;;;;12.45;4.32;;;10.90;83.10;;;;;;5028009;28;20057;-58
2023/04/08 05:24:02;;;;;;;10.70;4.07;;;10.90;83.00;;;;;;5028294;28;20036;-58
2023/04/08 05:26:27;;;;;;;14.73;4.50;;;10.90;83.50;;;;;;5043266;28;20030;-58
2023/04/08 05:28:53;;;;;;;18.13;4.75;;;10.90;83.40;;;;;;5042894;28;20029;-58
2023/04/08 05:31:18;;;;;;;13.02;3.63;;;10.90;83.10;;;;;;5027556;28;20064;-56
2023/04/08 05:33:44;;;;;;;14.98;4.10;;;10.90;82.90;;;;;;5028569;28;20034;-58
2023/04/08 05:36:10;;;;;;;22.67;4.82;;;10.90;82.90;;;;;;5043462;28;20049;-58
2023/04/08 05:38:36;;;;;;;8.30;4.00;;;10.90;82.90;;;;;;5043258;28;20112;-58
2023/04/08 05:41:02;;;;;;;20.35;4.63;;;10.90;83.10;;;;;;5043012;28;20061;-58
2023/04/08 05:43:28;;;;;;;21.55;4.85;;;10.90;82.80;;;;;;5027802;28;20037;-58
2023/04/08 05:45:53;;;;;;;13.70;4.35;;;10.90;82.80;;;;;;5042728;28;20028;-58
2023/04/08 05:48:19;;;;;;;14.65;5.10;;;10.80;82.70;;;;;;5042725;28;20067;-58
2023/04/08 05:50:47;;;;;;;13.23;4.15;;;10.80;82.80;;;;;;5042430;28;20041;-58
2023/04/08 05:53:12;;;;;;;14.77;3.83;;;10.80;82.70;;;;;;5025924;28;20045;-58
2023/04/08 05:55:38;;;;;;;9.75;4.22;;;10.90;82.70;;;;;;5042753;28;20022;-58
2023/04/08 05:58:04;;;;;;;12.20;4.35;;;10.90;82.70;;;;;;5041751;28;20053;-58
2023/04/08 06:00:30;;;;;;;18.30;4.28;;;10.90;82.60;;;;;;5025832;28;20026;-58
2023/04/08 06:02:55;;;;;;;14.57;4.03;;;10.90;82.60;;;;;;5027494;28;20037;-58
2023/04/08 06:05:21;;;;;;;12.38;3.83;;;10.90;82.50;;;;;;5042344;28;20105;-58
2023/04/08 06:07:46;;;;;;;15.07;4.10;;;10.90;82.50;;;;;;5027289;28;20421;-58
2023/04/08 06:10:12;;;;;;;15.38;4.05;;;10.90;82.50;;;;;;5042378;28;20032;-59
2023/04/08 06:12:38;;;;;;;16.30;4.43;;;10.80;82.40;;;;;;5026548;28;20494;-58
2023/04/08 06:15:05;;;;;;;10.30;3.85;;;10.90;82.40;;;;;;5026704;28;20058;-58
2023/04/08 06:17:31;;;;;;;14.55;4.07;;;10.80;82.40;;;;;;5026844;28;20022;-58
2023/04/08 06:19:56;;;;;;;11.05;3.63;;;10.90;82.40;;;;;;5041999;28;20037;-58
2023/04/08 06:22:22;;;;;;;8.55;3.83;;;10.90;82.30;;;;;;5027145;28;20033;-58
2023/04/08 06:24:47;;;;;;;8.85;3.75;;;10.90;83.00;;;;;;5026916;28;20022;-58
2023/04/08 06:27:14;;;;;;;11.45;3.20;;;10.90;82.30;;;;;;5058482;28;20447;-59
2023/04/08 06:29:40;;;;;;;11.18;3.83;;;10.90;82.20;;;;;;5041793;28;20018;-58
2023/04/08 06:32:06;;;;;;;10.60;3.97;;;10.90;82.20;;;;;;5025559;28;20033;-58
2023/04/08 06:34:31;;;;;;;11.00;3.85;;;10.90;82.20;;;;;;5041945;28;20479;-58
2023/04/08 06:36:57;;;;;;;9.25;3.20;;;10.90;82.20;;;;;;5025303;28;20058;-58
2023/04/08 06:39:23;;;;;;;11.85;3.50;;;10.90;82.20;;;;;;5026638;28;20038;-58
2023/04/08 06:41:48;;;;;;;8.05;3.10;;;10.90;82.10;;;;;;5026698;28;20054;-58
2023/04/08 06:44:14;;;;;;;9.35;3.15;;;10.90;82.10;;;;;;5041700;28;20129;-58
2023/04/08 06:46:40;;;;;;;11.82;3.80;;;10.90;82.00;;;;;;5041851;28;20029;-58
2023/04/08 06:49:05;;;;;;;11.93;3.40;;;10.90;81.90;;;;;;5026624;28;20104;-58
2023/04/08 06:51:31;;;;;;;11.95;3.80;;;10.90;81.80;;;;;;5041378;28;20041;-58
2023/04/08 06:53:57;;;;;;;10.25;3.28;;;10.90;81.80;;;;;;5041295;28;20022;-58
2023/04/08 06:56:25;;;;;;;12.38;3.67;;;11.00;81.80;;;;;;5026059;28;20033;-58
2023/04/08 06:58:50;;;;;;;9.30;2.90;;;11.00;81.70;;;;;;5041115;28;20136;-58
2023/04/08 07:01:16;;;;;;;11.45;3.78;;;11.00;81.70;;;;;;5041638;28;20106;-58
2023/04/08 07:03:42;;;;;;;10.77;3.20;;;11.00;81.60;;;;;;5041429;28;20505;-58
2023/04/08 07:06:07;;;;;;;10.32;3.30;;;11.00;81.60;;;;;;5041647;28;20061;-58
2023/04/08 07:08:33;;;;;;;8.05;2.92;;;11.00;81.60;;;;;;5026273;28;20064;-58
2023/04/08 07:10:59;;;;;;;7.10;3.08;;;11.00;81.60;;;;;;5025910;28;20065;-57
2023/04/08 07:13:24;;;;;;;6.45;2.97;;;11.00;81.50;;;;;;5024954;28;20045;-58
2023/04/08 07:15:50;;;;;;;8.90;3.17;;;11.00;81.50;;;;;;5025904;28;20026;-58
2023/04/08 07:18:16;;;;;;;8.75;2.85;;;11.00;81.40;;;;;;5026443;28;20037;-58
2023/04/08 07:20:42;;;;;;;7.07;2.97;;;11.00;81.40;;;;;;5025984;28;20022;-58
2023/04/08 07:23:07;;;;;;;8.98;2.97;;;11.00;81.30;;;;;;5024364;28;20048;-58
2023/04/08 07:25:36;;;;;;;10.05;2.78;;;11.00;81.20;;;;;;5041006;28;20033;-58
2023/04/08 07:28:01;;;;;;;8.25;2.88;;;11.00;81.20;;;;;;5025794;28;20038;-58
2023/04/08 07:30:27;;;;;;;11.70;3.45;;;11.10;81.80;;;;;;5025508;28;20507;-58
2023/04/08 07:32:54;;;;;;;4.53;3.08;;;11.10;81.10;;;;;;5025694;28;20059;-58
2023/04/08 07:35:23;;;;;;;6.07;2.90;;;11.10;81.00;;;;;;5040711;28;20026;-58
2023/04/08 07:37:49;;;;;;;7.85;2.95;;;11.10;81.00;;;;;;5026206;28;20044;-58
2023/04/08 07:40:15;;;;;;;7.32;2.83;;;11.10;80.90;;;;;;5025821;28;20018;-58
2023/04/08 07:42:41;;;;;;;8.43;3.03;;;11.20;81.00;;;;;;5040445;28;20040;-58
2023/04/08 07:45:07;;;;;;;7.15;2.97;;;11.20;80.90;;;;;;5023718;28;20049;-58
2023/04/08 07:47:33;;;;;;;6.88;2.80;;;11.20;80.80;;;;;;5023826;28;20042;-58
2023/04/08 07:49:58;;;;;;;7.97;2.92;;;11.20;80.80;;;;;;5023820;28;20058;-58
2023/04/08 07:52:25;;;;;;;10.43;3.60;;;11.20;80.80;;;;;;5024969;28;20386;-58
2023/04/08 07:54:50;;;;;;;5.78;3.05;;;11.30;80.80;;;;;;5024963;28;20057;-58
2023/04/08 07:57:16;;;;;;;10.23;2.80;;;11.30;80.50;;;;;;5024854;28;20030;-58
2023/04/08 07:59:41;;;;;;;12.10;2.95;;;11.30;80.40;;;;;;5040187;28;20022;-58
2023/04/08 08:02:57;;;;;;;9.77;2.90;;;11.30;80.50;;;;;;5039911;28;20025;-58
2023/04/08 08:05:22;;;;;;;4.85;2.38;;;11.40;80.50;;;;;;5056520;28;20030;-58
2023/04/08 08:07:49;;;;;;;6.00;3.15;;;11.40;80.50;;;;;;5024658;28;20041;-58
2023/04/08 08:10:15;;;;;;;6.82;3.05;;;11.40;80.60;;;;;;5056461;28;20057;-58
2023/04/08 08:12:40;;;;;;;6.05;3.05;;;11.40;80.60;;;;;;5025021;28;20029;-58
2023/04/08 08:15:07;;;;;;;7.70;3.10;;;11.50;80.60;;;;;;5039862;28;20089;-58
2023/04/08 08:17:32;;;;;;;5.57;3.10;;;11.40;80.50;;;;;;5039611;28;20033;-58
2023/04/08 08:19:59;;;;;;;6.05;3.13;;;11.50;80.70;;;;;;5056497;28;20463;-58
2023/04/08 08:22:25;;;;;;;10.32;2.97;;;11.50;80.80;;;;;;5060697;28;20017;-58
2023/04/08 08:24:56;;;;;;;6.38;3.38;;;11.60;80.90;;;;;;5046558;28;20037;-58
2023/04/08 08:27:21;;;;;;;7.30;3.65;;;11.60;80.80;;;;;;5046721;28;20026;-58
2023/04/08 08:29:47;;;;;;;8.95;3.28;;;11.70;80.60;;;;;;5062880;28;20054;-58
2023/04/08 08:32:12;;;;;;;9.23;3.42;;;11.70;80.70;;;;;;5046432;28;20017;-58
2023/04/08 08:34:38;;;;;;;10.02;4.18;;;11.70;80.90;;;;;;5046247;28;20038;-58
2023/04/08 08:37:03;;;;;;;12.30;4.70;;;11.70;81.10;;;;;;5031304;28;20014;-58
2023/04/08 08:39:29;;;;;;;15.38;4.22;;;11.70;81.10;;;;;;5046162;28;20026;-58
2023/04/08 08:41:55;;;;;;;11.45;3.95;;;11.80;81.30;;;;;;5046257;28;20029;-58
2023/04/08 08:44:21;;;;;;;12.57;4.10;;;11.80;81.30;;;;;;5031160;28;20045;-58
2023/04/08 08:46:47;;;;;;;28.58;4.97;;;11.90;82.00;;;;;;5046153;28;20030;-58
2023/04/08 08:49:13;;;;;;;18.00;5.57;;;11.90;81.40;;;;;;5058172;28;20519;-58
2023/04/08 08:51:39;;;;;;;16.80;5.25;;;12.00;81.50;;;;;;5050842;28;20063;-58
2023/04/08 08:54:05;;;;;;;24.05;5.38;;;12.00;81.60;;;;;;5050890;28;20049;-58
2023/04/08 08:56:32;;;;;;;23.63;5.95;;;12.00;81.50;;;;;;5050764;28;20431;-58
2023/04/08 08:58:57;;;;;;;33.15;6.22;;;12.10;81.60;;;;;;5049403;28;20034;-58
2023/04/08 09:01:30;;;;;;;34.25;6.55;;;12.10;81.60;;;;;;5049113;28;20470;-58
2023/04/08 09:04:25;;;;;;;76.75;11.20;;;12.10;81.70;;;;;;5050478;28;20424;-58
2023/04/08 09:07:12;;;;;;;63.67;9.70;;;12.20;81.80;;;;;;5027864;28;20037;-58
2023/04/08 09:09:50;;;;;;;62.17;9.57;;;12.30;82.00;;;;;;5032339;28;20053;-58
2023/04/08 09:12:16;;;;;;;54.00;9.57;;;12.30;82.10;;;;;;5071977;28;20089;-58
2023/04/08 09:14:41;;;;;;;56.83;8.88;;;12.30;82.30;;;;;;5047750;28;20435;-59
2023/04/08 09:17:07;;;;;;;116.43;14.52;;;12.30;82.30;;;;;;5047822;28;20040;-58
2023/04/08 09:19:33;;;;;;;107.05;11.18;;;12.40;83.00;;;;;;5047837;28;20064;-58
2023/04/08 09:22:11;;;;;;;76.25;11.05;;;12.40;82.30;;;;;;5047872;28;20021;-58
2023/04/08 09:24:36;;;;;;;59.95;9.23;;;12.40;82.30;;;;;;5062296;28;20030;-58
2023/04/08 09:27:03;;;;;;;53.25;9.07;;;12.50;82.40;;;;;;5029418;28;20029;-58
2023/04/08 09:29:29;;;;;;;69.97;10.48;;;12.50;82.30;;;;;;5029680;28;20033;-58
2023/04/08 09:31:56;;;;;;;94.63;12.27;;;12.60;82.30;;;;;;5062658;28;20339;-58
2023/04/08 09:34:22;;;;;;;86.28;12.43;;;12.60;82.20;;;;;;5028172;28;20038;-58
2023/04/08 09:36:51;;;;;;;112.13;15.18;;;12.60;82.00;;;;;;5042726;28;20395;-58
2023/04/08 09:39:17;;;;;;;123.88;15.48;;;12.60;82.00;;;;;;5059013;28;20082;-58
2023/04/08 09:41:42;;;;;;;58.97;9.38;;;12.70;82.40;;;;;;5040483;28;20034;-58
2023/04/08 09:44:09;;;;;;;68.35;10.52;;;12.70;81.90;;;;;;5025356;28;20034;-58
2023/04/08 09:46:50;;;;;;;73.22;9.93;;;12.70;81.90;;;;;;5025103;28;20037;-58
2023/04/08 09:49:23;;;;;;;60.03;11.07;;;12.80;82.00;;;;;;5025219;28;20045;-58
2023/04/08 09:51:56;;;;;;;74.57;10.90;;;12.90;82.00;;;;;;5056378;28;20471;-58
2023/04/08 09:54:22;;;;;;;77.20;10.82;;;12.90;81.90;;;;;;5040117;28;20026;-58
2023/04/08 09:56:57;;;;;;;100.20;12.98;;;12.90;82.10;;;;;;5059090;28;20024;-58
2023/04/08 09:59:23;;;;;;;75.88;11.45;;;13.00;82.00;;;;;;5041803;28;20063;-58
2023/04/08 10:01:52;;;;;;;77.53;12.35;;;13.00;81.60;;;;;;5046523;28;20121;-59
2023/04/08 10:04:19;;;;;;;79.30;10.40;;;13.10;81.70;;;;;;5037694;28;20097;-59
2023/04/08 10:06:50;;;;;;;64.13;9.98;;;13.10;81.60;;;;;;5044526;28;20029;-58
2023/04/08 10:09:15;;;;;;;70.28;10.50;;;13.10;81.50;;;;;;5029238;28;20037;-59
2023/04/08 10:11:41;;;;;;;74.60;10.85;;;13.20;81.20;;;;;;5020107;28;20167;-58
2023/04/08 10:14:08;;;;;;;68.22;11.68;;;13.20;81.10;;;;;;5041903;28;20081;-58
2023/04/08 10:16:34;;;;;;;68.05;10.55;;;13.30;81.20;;;;;;5041759;28;20458;-58
2023/04/08 10:19:00;;;;;;;81.45;10.35;;;13.30;81.20;;;;;;5026495;28;20034;-58
2023/04/08 10:21:32;;;;;;;64.05;9.75;;;13.40;81.00;;;;;;5041352;28;20022;-58
2023/04/08 10:23:58;;;;;;;74.47;12.52;;;13.40;81.00;;;;;;5026575;28;20042;-58
2023/04/08 10:26:37;;;;;;;85.90;11.70;;;13.40;81.00;;;;;;5026362;28;20040;-59
2023/04/08 10:29:18;;;;;;;80.45;12.88;;;13.50;81.00;;;;;;5041124;28;20034;-58
2023/04/08 10:31:45;;;;;;;79.85;11.43;;;13.60;80.90;;;;;;5026288;28;20093;-58
2023/04/08 10:34:17;;;;;;;81.75;12.07;;;13.60;80.80;;;;;;5041167;28;20026;-58
2023/04/08 10:36:43;;;;;;;95.03;12.35;;;13.60;80.60;;;;;;5026131;28;20022;-59
2023/04/08 10:39:09;;;;;;;81.32;11.75;;;13.70;80.40;;;;;;5043709;28;20029;-58
2023/04/08 10:41:34;;;;;;;95.38;11.80;;;13.70;80.40;;;;;;5044601;28;20040;-58
2023/04/08 10:44:02;;;;;;;88.45;12.15;;;13.70;80.50;;;;;;5044224;28;20420;-58
2023/04/08 10:46:28;;;;;;;81.30;12.25;;;13.80;80.40;;;;;;5045726;28;20032;-59
2023/04/08 10:49:00;;;;;;;65.65;11.35;;;13.80;80.10;;;;;;5024437;28;20034;-59
2023/04/08 10:51:30;;;;;;;61.67;7.53;;;13.90;80.10;;;;;;5024562;28;20037;-58
2023/04/08 10:53:56;;;;;;;44.75;7.75;;;13.90;79.30;;;;;;5024572;28;20114;-58
2023/04/08 10:56:22;;;;;;;65.72;9.93;;;14.00;79.10;;;;;;4991593;28;20026;-58
2023/04/08 10:58:48;;;;;;;70.78;11.15;;;14.00;79.30;;;;;;5041900;28;20017;-59
2023/04/08 11:01:14;;;;;;;81.68;11.52;;;14.10;79.40;;;;;;5040513;28;20029;-59
2023/04/08 11:03:41;;;;;;;80.38;10.50;;;14.10;79.60;;;;;;5057491;28;20097;-58
2023/04/08 11:06:07;;;;;;;90.75;12.07;;;14.10;79.50;;;;;;5040694;28;20497;-58
2023/04/08 11:08:33;;;;;;;76.25;11.27;;;14.20;79.50;;;;;;5056947;28;20064;-59
2023/04/08 11:11:02;;;;;;;60.35;10.30;;;14.30;79.40;;;;;;5040981;28;20192;-59
2023/04/08 11:13:28;;;;;;;82.85;9.60;;;14.30;79.40;;;;;;5024330;28;20029;-58
2023/04/08 11:15:55;;;;;;;66.60;9.80;;;14.30;79.50;;;;;;5024208;28;20165;-58
2023/04/08 11:18:21;;;;;;;91.47;12.63;;;14.30;79.20;;;;;;5024294;28;20030;-58
2023/04/08 11:20:49;;;;;;;83.47;11.75;;;14.40;79.00;;;;;;5025629;28;20030;-58
2023/04/08 11:23:16;;;;;;;76.28;11.35;;;14.40;79.60;;;;;;5025547;28;20030;-58
2023/04/08 11:25:41;;;;;;;94.40;12.48;;;14.50;78.70;;;;;;5040220;28;20109;-58
2023/04/08 11:28:07;;;;;;;80.13;11.85;;;14.50;78.40;;;;;;5042705;28;20033;-58
2023/04/08 11:30:33;;;;;;;71.40;10.93;;;14.60;78.40;;;;;;5042277;28;20029;-58
2023/04/08 11:32:58;;;;;;;71.60;10.30;;;14.60;78.40;;;;;;5050512;28;20035;-58
2023/04/08 11:35:28;;;;;;;81.45;11.88;;;14.70;78.40;;;;;;5042103;28;20131;-58
2023/04/08 11:37:54;;;;;;;94.82;14.00;;;14.70;78.40;;;;;;5040981;28;20134;-58
2023/04/08 11:40:20;;;;;;;97.18;12.07;;;14.80;78.30;;;;;;5042279;28;20022;-58
2023/04/08 11:42:46;;;;;;;96.05;11.55;;;14.80;78.10;;;;;;5043513;28;20048;-58
2023/04/08 11:45:13;;;;;;;95.30;13.13;;;14.90;78.00;;;;;;5043678;28;20025;-58
2023/04/08 11:47:39;;;;;;;77.65;11.43;;;14.90;77.80;;;;;;5042643;28;20116;-58
2023/04/08 11:50:05;;;;;;;115.15;14.27;;;14.90;77.90;;;;;;5043296;28;20021;-58
2023/04/08 11:52:44;;;;;;;94.13;13.18;;;15.00;78.00;;;;;;5043347;28;20128;-58
2023/04/08 11:55:11;;;;;;;80.85;12.70;;;15.00;78.10;;;;;;5043373;28;20064;-58
2023/04/08 11:57:37;;;;;;;72.05;12.65;;;15.10;77.80;;;;;;5042938;28;20048;-58
2023/04/08 12:00:07;;;;;;;80.20;11.70;;;15.10;77.90;;;;;;5043392;28;20025;-58
2023/04/08 12:02:32;;;;;;;69.60;10.05;;;15.20;77.20;;;;;;5042851;28;20133;-59
2023/04/08 12:04:58;;;;;;;60.53;9.88;;;15.20;76.90;;;;;;5043634;28;20152;-58
2023/04/08 12:07:23;;;;;;;77.47;10.43;;;15.20;77.10;;;;;;5045193;28;20077;-58
2023/04/08 12:09:49;;;;;;;113.45;13.15;;;15.20;77.10;;;;;;5044933;28;20034;-58
2023/04/08 12:12:14;;;;;;;88.03;12.55;;;15.20;76.30;;;;;;5044198;28;20029;-58
2023/04/08 12:14:40;;;;;;;99.53;13.70;;;15.30;76.80;;;;;;5043280;28;20022;-59
2023/04/08 12:17:06;;;;;;;125.45;14.27;;;15.30;76.90;;;;;;5043175;28;20072;-58
2023/04/08 12:19:31;;;;;;;90.88;12.25;;;15.30;76.90;;;;;;5043691;28;20021;-59
2023/04/08 12:21:57;;;;;;;135.32;16.20;;;15.30;76.90;;;;;;5041835;28;20473;-58
2023/04/08 12:24:22;;;;;;;101.90;13.93;;;15.40;77.00;;;;;;5042313;28;20378;-59
2023/04/08 12:26:48;;;;;;;93.55;13.30;;;15.30;77.00;;;;;;5041918;28;20022;-58
2023/04/08 12:29:13;;;;;;;108.03;14.95;;;15.40;77.20;;;;;;5043702;28;20041;-58
2023/04/08 12:31:39;;;;;;;164.38;19.45;;;15.40;77.10;;;;;;5042976;28;20025;-58
2023/04/08 12:34:05;;;;;;;100.82;12.90;;;15.40;76.70;;;;;;5044564;28;20080;-58
2023/04/08 12:36:32;;;;;;;126.00;14.38;;;15.40;76.10;;;;;;5044067;28;20025;-58